sensor_id;sensor_type;location;lat;lon;timestamp;P1;durP1;ratioP1;P2;durP2;ratioP2
63499;SDS011;49654;51.142;14.924;2023-01-13T00:00:50;5.05;;;2.78;;
63499;SDS011;49654;51.142;14.924;2023-01-13T00:03:17;5.05;;;2.55;;
63499;SDS011;49654;51.142;14.924;2023-01-13T00:05:45;5.50;;;2.55;;
63499;SDS011;49654;51.142;14.924;2023-01-13T00:08:12;5.35;;;2.53;;
63499;SDS011;49654;51.142;14.924;2023-01-13T00:10:38;4.95;;;2.20;;
63499;SDS011;49654;51.142;14.924;2023-01-13T00:13:05;4.10;;;2.08;;
63499;SDS011;49654;51.142;14.924;2023-01-13T00:15:32;5.85;;;2.53;;
63499;SDS011;49654;51.142;14.924;2023-01-13T00:18:00;3.55;;;2.20;;
63499;SDS011;49654;51.142;14.924;2023-01-13T00:20:27;5.85;;;2.35;;
63499;SDS011;49654;51.142;14.924;2023-01-13T00:22:54;5.78;;;2.15;;
63499;SDS011;49654;51.142;14.924;2023-01-13T00:25:23;5.10;;;2.30;;
63499;SDS011;49654;51.142;14.924;2023-01-13T00:27:50;5.90;;;2.35;;
63499;SDS011;49654;51.142;14.924;2023-01-13T00:30:17;4.97;;;2.30;;
63499;SDS011;49654;51.142;14.924;2023-01-13T00:32:43;5.53;;;2.13;;
63499;SDS011;49654;51.142;14.924;2023-01-13T00:35:12;3.70;;;2.03;;
63499;SDS011;49654;51.142;14.924;2023-01-13T00:37:39;5.65;;;2.78;;
63499;SDS011;49654;51.142;14.924;2023-01-13T00:40:06;5.28;;;2.10;;
63499;SDS011;49654;51.142;14.924;2023-01-13T00:42:34;5.50;;;2.42;;
63499;SDS011;49654;51.142;14.924;2023-01-13T00:45:18;5.20;;;2.30;;
63499;SDS011;49654;51.142;14.924;2023-01-13T00:47:45;5.38;;;2.35;;
63499;SDS011;49654;51.142;14.924;2023-01-13T00:50:14;3.28;;;2.20;;
63499;SDS011;49654;51.142;14.924;2023-01-13T00:52:41;4.65;;;2.28;;
63499;SDS011;49654;51.142;14.924;2023-01-13T00:55:08;5.32;;;2.97;;
63499;SDS011;49654;51.142;14.924;2023-01-13T00:57:35;6.38;;;2.40;;
63499;SDS011;49654;51.142;14.924;2023-01-13T01:00:02;3.95;;;2.35;;
63499;SDS011;49654;51.142;14.924;2023-01-13T01:02:29;5.00;;;2.53;;
63499;SDS011;49654;51.142;14.924;2023-01-13T01:04:56;4.63;;;2.03;;
63499;SDS011;49654;51.142;14.924;2023-01-13T01:07:25;5.03;;;2.47;;
63499;SDS011;49654;51.142;14.924;2023-01-13T01:09:52;3.78;;;1.92;;
63499;SDS011;49654;51.142;14.924;2023-01-13T01:12:19;3.92;;;2.20;;
63499;SDS011;49654;51.142;14.924;2023-01-13T01:14:46;3.53;;;1.83;;
63499;SDS011;49654;51.142;14.924;2023-01-13T01:17:13;4.22;;;1.98;;
63499;SDS011;49654;51.142;14.924;2023-01-13T01:19:40;4.72;;;1.80;;
63499;SDS011;49654;51.142;14.924;2023-01-13T01:22:07;3.50;;;2.05;;
63499;SDS011;49654;51.142;14.924;2023-01-13T01:24:35;3.80;;;1.90;;
63499;SDS011;49654;51.142;14.924;2023-01-13T01:27:02;4.32;;;2.00;;
63499;SDS011;49654;51.142;14.924;2023-01-13T01:29:29;3.70;;;1.90;;
63499;SDS011;49654;51.142;14.924;2023-01-13T01:31:56;4.82;;;1.92;;
63499;SDS011;49654;51.142;14.924;2023-01-13T01:34:23;4.53;;;1.77;;
63499;SDS011;49654;51.142;14.924;2023-01-13T01:36:50;3.28;;;1.75;;
63499;SDS011;49654;51.142;14.924;2023-01-13T01:39:17;3.53;;;1.55;;
63499;SDS011;49654;51.142;14.924;2023-01-13T01:41:45;3.38;;;1.98;;
63499;SDS011;49654;51.142;14.924;2023-01-13T01:47:18;6.03;;;1.90;;
63499;SDS011;49654;51.142;14.924;2023-01-13T01:49:46;2.35;;;1.63;;
63499;SDS011;49654;51.142;14.924;2023-01-13T01:52:15;6.07;;;1.85;;
63499;SDS011;49654;51.142;14.924;2023-01-13T01:54:48;3.92;;;1.85;;
63499;SDS011;49654;51.142;14.924;2023-01-13T01:57:22;3.63;;;1.85;;
63499;SDS011;49654;51.142;14.924;2023-01-13T01:59:52;2.50;;;1.58;;
63499;SDS011;49654;51.142;14.924;2023-01-13T02:02:19;4.40;;;1.85;;
63499;SDS011;49654;51.142;14.924;2023-01-13T02:04:47;3.13;;;1.90;;
63499;SDS011;49654;51.142;14.924;2023-01-13T02:07:17;4.90;;;2.05;;
63499;SDS011;49654;51.142;14.924;2023-01-13T02:09:46;5.32;;;1.70;;
63499;SDS011;49654;51.142;14.924;2023-01-13T02:12:14;4.13;;;1.90;;
63499;SDS011;49654;51.142;14.924;2023-01-13T02:14:59;4.63;;;2.05;;
63499;SDS011;49654;51.142;14.924;2023-01-13T02:23:26;3.05;;;1.73;;
63499;SDS011;49654;51.142;14.924;2023-01-13T02:26:47;3.17;;;1.80;;
63499;SDS011;49654;51.142;14.924;2023-01-13T02:29:44;2.97;;;1.70;;
63499;SDS011;49654;51.142;14.924;2023-01-13T02:32:44;2.80;;;1.85;;
63499;SDS011;49654;51.142;14.924;2023-01-13T02:35:18;4.10;;;1.90;;
63499;SDS011;49654;51.142;14.924;2023-01-13T02:37:50;4.07;;;2.25;;
63499;SDS011;49654;51.142;14.924;2023-01-13T02:40:18;2.72;;;1.58;;
63499;SDS011;49654;51.142;14.924;2023-01-13T02:42:52;3.50;;;1.60;;
63499;SDS011;49654;51.142;14.924;2023-01-13T02:45:47;3.80;;;1.90;;
63499;SDS011;49654;51.142;14.924;2023-01-13T02:48:19;4.65;;;1.90;;
63499;SDS011;49654;51.142;14.924;2023-01-13T02:50:49;5.00;;;2.20;;
63499;SDS011;49654;51.142;14.924;2023-01-13T02:53:23;4.38;;;1.85;;
63499;SDS011;49654;51.142;14.924;2023-01-13T02:55:53;5.53;;;1.90;;
63499;SDS011;49654;51.142;14.924;2023-01-13T02:58:24;3.97;;;2.10;;
63499;SDS011;49654;51.142;14.924;2023-01-13T03:00:55;2.83;;;1.65;;
63499;SDS011;49654;51.142;14.924;2023-01-13T03:03:22;2.95;;;1.77;;
63499;SDS011;49654;51.142;14.924;2023-01-13T03:05:50;3.45;;;2.00;;
63499;SDS011;49654;51.142;14.924;2023-01-13T03:08:21;2.50;;;1.88;;
63499;SDS011;49654;51.142;14.924;2023-01-13T03:11:01;2.40;;;1.67;;
63499;SDS011;49654;51.142;14.924;2023-01-13T03:13:36;4.97;;;1.90;;
63499;SDS011;49654;51.142;14.924;2023-01-13T03:16:14;2.75;;;1.70;;
63499;SDS011;49654;51.142;14.924;2023-01-13T03:18:49;3.83;;;1.75;;
63499;SDS011;49654;51.142;14.924;2023-01-13T03:21:27;3.38;;;1.80;;
63499;SDS011;49654;51.142;14.924;2023-01-13T03:24:00;2.92;;;1.85;;
63499;SDS011;49654;51.142;14.924;2023-01-13T03:26:32;5.00;;;1.83;;
63499;SDS011;49654;51.142;14.924;2023-01-13T03:29:06;3.85;;;1.83;;
63499;SDS011;49654;51.142;14.924;2023-01-13T03:31:41;3.80;;;1.60;;
63499;SDS011;49654;51.142;14.924;2023-01-13T03:34:12;4.22;;;1.88;;
63499;SDS011;49654;51.142;14.924;2023-01-13T03:36:42;2.85;;;1.80;;
63499;SDS011;49654;51.142;14.924;2023-01-13T03:39:15;4.45;;;1.80;;
63499;SDS011;49654;51.142;14.924;2023-01-13T03:41:47;4.28;;;2.53;;
63499;SDS011;49654;51.142;14.924;2023-01-13T03:44:19;5.85;;;2.00;;
63499;SDS011;49654;51.142;14.924;2023-01-13T03:49:41;4.45;;;1.80;;
63499;SDS011;49654;51.142;14.924;2023-01-13T03:52:12;4.78;;;1.80;;
63499;SDS011;49654;51.142;14.924;2023-01-13T03:54:45;3.67;;;1.63;;
63499;SDS011;49654;51.142;14.924;2023-01-13T03:57:18;3.45;;;1.80;;
63499;SDS011;49654;51.142;14.924;2023-01-13T03:59:51;2.70;;;1.60;;
63499;SDS011;49654;51.142;14.924;2023-01-13T04:02:25;3.25;;;1.58;;
63499;SDS011;49654;51.142;14.924;2023-01-13T04:05:02;3.28;;;1.48;;
63499;SDS011;49654;51.142;14.924;2023-01-13T04:07:36;4.43;;;1.73;;
63499;SDS011;49654;51.142;14.924;2023-01-13T04:10:11;2.78;;;1.70;;
63499;SDS011;49654;51.142;14.924;2023-01-13T04:12:43;3.22;;;1.70;;
63499;SDS011;49654;51.142;14.924;2023-01-13T04:15:26;3.55;;;1.70;;
63499;SDS011;49654;51.142;14.924;2023-01-13T04:20:40;3.78;;;1.60;;
63499;SDS011;49654;51.142;14.924;2023-01-13T04:23:09;1.73;;;1.30;;
63499;SDS011;49654;51.142;14.924;2023-01-13T04:25:38;3.95;;;1.70;;
63499;SDS011;49654;51.142;14.924;2023-01-13T04:28:05;3.15;;;1.70;;
63499;SDS011;49654;51.142;14.924;2023-01-13T04:30:32;3.22;;;1.70;;
63499;SDS011;49654;51.142;14.924;2023-01-13T04:32:59;4.80;;;2.10;;
63499;SDS011;49654;51.142;14.924;2023-01-13T04:35:30;3.85;;;1.58;;
63499;SDS011;49654;51.142;14.924;2023-01-13T04:37:59;3.17;;;1.60;;
63499;SDS011;49654;51.142;14.924;2023-01-13T04:40:26;2.00;;;1.75;;
63499;SDS011;49654;51.142;14.924;2023-01-13T04:42:53;3.72;;;1.55;;
63499;SDS011;49654;51.142;14.924;2023-01-13T04:45:20;2.63;;;1.40;;
63499;SDS011;49654;51.142;14.924;2023-01-13T04:47:47;2.85;;;1.70;;
63499;SDS011;49654;51.142;14.924;2023-01-13T04:50:15;1.70;;;1.60;;
63499;SDS011;49654;51.142;14.924;2023-01-13T04:52:45;4.10;;;1.58;;
63499;SDS011;49654;51.142;14.924;2023-01-13T04:55:13;2.40;;;1.33;;
63499;SDS011;49654;51.142;14.924;2023-01-13T04:57:40;4.32;;;1.65;;
63499;SDS011;49654;51.142;14.924;2023-01-13T05:00:08;3.28;;;1.65;;
63499;SDS011;49654;51.142;14.924;2023-01-13T05:02:37;2.38;;;1.50;;
63499;SDS011;49654;51.142;14.924;2023-01-13T05:05:04;1.98;;;1.50;;
63499;SDS011;49654;51.142;14.924;2023-01-13T05:07:31;4.95;;;1.70;;
63499;SDS011;49654;51.142;14.924;2023-01-13T05:10:00;3.13;;;1.80;;
63499;SDS011;49654;51.142;14.924;2023-01-13T05:12:27;3.00;;;1.63;;
63499;SDS011;49654;51.142;14.924;2023-01-13T05:15:12;4.35;;;1.70;;
63499;SDS011;49654;51.142;14.924;2023-01-13T05:17:57;2.47;;;1.40;;
63499;SDS011;49654;51.142;14.924;2023-01-13T05:20:25;3.63;;;1.35;;
63499;SDS011;49654;51.142;14.924;2023-01-13T05:22:52;3.38;;;1.50;;
63499;SDS011;49654;51.142;14.924;2023-01-13T05:25:38;3.60;;;1.60;;
63499;SDS011;49654;51.142;14.924;2023-01-13T05:28:08;2.28;;;1.50;;
63499;SDS011;49654;51.142;14.924;2023-01-13T05:30:36;4.18;;;1.70;;
63499;SDS011;49654;51.142;14.924;2023-01-13T05:33:06;2.13;;;1.60;;
63499;SDS011;49654;51.142;14.924;2023-01-13T05:35:33;3.88;;;2.05;;
63499;SDS011;49654;51.142;14.924;2023-01-13T05:38:02;3.40;;;1.90;;
63499;SDS011;49654;51.142;14.924;2023-01-13T05:40:29;2.80;;;2.03;;
63499;SDS011;49654;51.142;14.924;2023-01-13T05:43:16;2.70;;;1.50;;
63499;SDS011;49654;51.142;14.924;2023-01-13T05:45:50;3.22;;;1.50;;
63499;SDS011;49654;51.142;14.924;2023-01-13T05:48:19;2.67;;;1.52;;
63499;SDS011;49654;51.142;14.924;2023-01-13T05:50:48;2.28;;;1.48;;
63499;SDS011;49654;51.142;14.924;2023-01-13T05:53:16;1.98;;;1.50;;
63499;SDS011;49654;51.142;14.924;2023-01-13T05:55:43;5.03;;;1.75;;
63499;SDS011;49654;51.142;14.924;2023-01-13T05:58:11;3.40;;;1.65;;
63499;SDS011;49654;51.142;14.924;2023-01-13T06:00:41;3.15;;;1.70;;
63499;SDS011;49654;51.142;14.924;2023-01-13T06:03:08;5.60;;;1.75;;
63499;SDS011;49654;51.142;14.924;2023-01-13T06:05:36;3.67;;;1.70;;
63499;SDS011;49654;51.142;14.924;2023-01-13T06:08:04;4.85;;;1.60;;
63499;SDS011;49654;51.142;14.924;2023-01-13T06:10:32;2.60;;;1.58;;
63499;SDS011;49654;51.142;14.924;2023-01-13T06:12:59;2.53;;;1.50;;
63499;SDS011;49654;51.142;14.924;2023-01-13T06:15:26;2.35;;;1.33;;
63499;SDS011;49654;51.142;14.924;2023-01-13T06:17:54;1.42;;;1.13;;
63499;SDS011;49654;51.142;14.924;2023-01-13T06:20:22;2.95;;;1.38;;
63499;SDS011;49654;51.142;14.924;2023-01-13T06:22:50;2.22;;;1.30;;
63499;SDS011;49654;51.142;14.924;2023-01-13T06:25:23;5.43;;;1.38;;
63499;SDS011;49654;51.142;14.924;2023-01-13T06:27:56;1.92;;;1.40;;
63499;SDS011;49654;51.142;14.924;2023-01-13T06:30:25;4.63;;;1.33;;
63499;SDS011;49654;51.142;14.924;2023-01-13T06:32:57;2.28;;;1.45;;
63499;SDS011;49654;51.142;14.924;2023-01-13T06:35:27;2.92;;;1.73;;
63499;SDS011;49654;51.142;14.924;2023-01-13T06:37:56;4.38;;;1.27;;
63499;SDS011;49654;51.142;14.924;2023-01-13T06:40:27;2.53;;;1.33;;
63499;SDS011;49654;51.142;14.924;2023-01-13T06:42:55;2.35;;;1.20;;
63499;SDS011;49654;51.142;14.924;2023-01-13T06:45:41;3.05;;;1.50;;
63499;SDS011;49654;51.142;14.924;2023-01-13T06:48:12;2.20;;;1.20;;
63499;SDS011;49654;51.142;14.924;2023-01-13T06:50:39;2.58;;;1.50;;
63499;SDS011;49654;51.142;14.924;2023-01-13T06:53:07;2.45;;;1.60;;
63499;SDS011;49654;51.142;14.924;2023-01-13T06:55:34;3.17;;;1.63;;
63499;SDS011;49654;51.142;14.924;2023-01-13T06:58:01;5.72;;;1.83;;
63499;SDS011;49654;51.142;14.924;2023-01-13T07:00:28;2.45;;;1.30;;
63499;SDS011;49654;51.142;14.924;2023-01-13T07:03:04;2.65;;;1.45;;
63499;SDS011;49654;51.142;14.924;2023-01-13T07:05:33;5.72;;;1.60;;
63499;SDS011;49654;51.142;14.924;2023-01-13T07:08:00;2.88;;;1.58;;
63499;SDS011;49654;51.142;14.924;2023-01-13T07:10:27;7.30;;;2.40;;
63499;SDS011;49654;51.142;14.924;2023-01-13T07:12:54;2.55;;;1.52;;
63499;SDS011;49654;51.142;14.924;2023-01-13T07:15:38;3.33;;;1.35;;
63499;SDS011;49654;51.142;14.924;2023-01-13T07:18:05;2.08;;;1.40;;
63499;SDS011;49654;51.142;14.924;2023-01-13T07:20:33;2.03;;;1.42;;
63499;SDS011;49654;51.142;14.924;2023-01-13T07:23:00;2.05;;;1.50;;
63499;SDS011;49654;51.142;14.924;2023-01-13T07:25:27;2.28;;;1.48;;
63499;SDS011;49654;51.142;14.924;2023-01-13T07:27:55;3.05;;;1.58;;
63499;SDS011;49654;51.142;14.924;2023-01-13T07:30:22;3.97;;;1.70;;
63499;SDS011;49654;51.142;14.924;2023-01-13T07:32:49;2.88;;;1.30;;
63499;SDS011;49654;51.142;14.924;2023-01-13T07:35:16;5.75;;;1.80;;
63499;SDS011;49654;51.142;14.924;2023-01-13T07:37:48;3.75;;;1.40;;
63499;SDS011;49654;51.142;14.924;2023-01-13T07:40:16;2.90;;;1.85;;
63499;SDS011;49654;51.142;14.924;2023-01-13T07:42:43;3.40;;;1.60;;
63499;SDS011;49654;51.142;14.924;2023-01-13T07:45:27;3.40;;;1.48;;
63499;SDS011;49654;51.142;14.924;2023-01-13T07:47:54;1.73;;;1.42;;
63499;SDS011;49654;51.142;14.924;2023-01-13T07:50:21;6.28;;;1.92;;
63499;SDS011;49654;51.142;14.924;2023-01-13T07:52:50;5.05;;;1.52;;
63499;SDS011;49654;51.142;14.924;2023-01-13T07:55:17;3.20;;;1.50;;
63499;SDS011;49654;51.142;14.924;2023-01-13T07:57:44;2.28;;;1.60;;
63499;SDS011;49654;51.142;14.924;2023-01-13T08:00:11;3.58;;;1.65;;
63499;SDS011;49654;51.142;14.924;2023-01-13T08:02:39;2.70;;;1.38;;
63499;SDS011;49654;51.142;14.924;2023-01-13T08:05:06;3.58;;;1.48;;
63499;SDS011;49654;51.142;14.924;2023-01-13T08:07:34;3.00;;;1.38;;
63499;SDS011;49654;51.142;14.924;2023-01-13T08:10:03;1.48;;;1.23;;
63499;SDS011;49654;51.142;14.924;2023-01-13T08:12:30;3.72;;;1.40;;
63499;SDS011;49654;51.142;14.924;2023-01-13T08:15:15;4.13;;;1.50;;
63499;SDS011;49654;51.142;14.924;2023-01-13T08:17:42;4.00;;;1.50;;
63499;SDS011;49654;51.142;14.924;2023-01-13T08:20:09;1.98;;;1.40;;
63499;SDS011;49654;51.142;14.924;2023-01-13T08:22:36;2.40;;;1.42;;
63499;SDS011;49654;51.142;14.924;2023-01-13T08:25:05;2.75;;;1.60;;
63499;SDS011;49654;51.142;14.924;2023-01-13T08:27:33;3.05;;;1.40;;
63499;SDS011;49654;51.142;14.924;2023-01-13T08:30:00;4.05;;;1.48;;
63499;SDS011;49654;51.142;14.924;2023-01-13T08:32:27;3.47;;;1.55;;
63499;SDS011;49654;51.142;14.924;2023-01-13T08:34:54;1.85;;;1.10;;
63499;SDS011;49654;51.142;14.924;2023-01-13T08:37:20;3.45;;;1.45;;
63499;SDS011;49654;51.142;14.924;2023-01-13T08:39:47;3.92;;;2.17;;
63499;SDS011;49654;51.142;14.924;2023-01-13T08:42:16;1.77;;;1.38;;
63499;SDS011;49654;51.142;14.924;2023-01-13T08:44:42;3.78;;;1.50;;
63499;SDS011;49654;51.142;14.924;2023-01-13T08:47:09;2.60;;;1.33;;
63499;SDS011;49654;51.142;14.924;2023-01-13T08:49:36;2.70;;;1.50;;
63499;SDS011;49654;51.142;14.924;2023-01-13T08:52:03;4.05;;;1.40;;
63499;SDS011;49654;51.142;14.924;2023-01-13T08:54:30;4.75;;;1.60;;
63499;SDS011;49654;51.142;14.924;2023-01-13T08:56:57;3.50;;;1.50;;
63499;SDS011;49654;51.142;14.924;2023-01-13T08:59:25;4.22;;;1.20;;
63499;SDS011;49654;51.142;14.924;2023-01-13T09:01:52;3.42;;;1.60;;
63499;SDS011;49654;51.142;14.924;2023-01-13T09:04:20;3.75;;;1.70;;
63499;SDS011;49654;51.142;14.924;2023-01-13T09:06:48;2.30;;;1.40;;
63499;SDS011;49654;51.142;14.924;2023-01-13T09:09:16;2.45;;;1.25;;
63499;SDS011;49654;51.142;14.924;2023-01-13T09:11:44;2.40;;;1.45;;
63499;SDS011;49654;51.142;14.924;2023-01-13T09:14:33;5.60;;;1.17;;
63499;SDS011;49654;51.142;14.924;2023-01-13T09:17:01;1.73;;;1.20;;
63499;SDS011;49654;51.142;14.924;2023-01-13T09:19:28;2.47;;;1.20;;
63499;SDS011;49654;51.142;14.924;2023-01-13T09:21:56;3.38;;;1.40;;
63499;SDS011;49654;51.142;14.924;2023-01-13T09:24:23;3.17;;;1.30;;
63499;SDS011;49654;51.142;14.924;2023-01-13T09:26:51;3.05;;;1.30;;
63499;SDS011;49654;51.142;14.924;2023-01-13T09:29:18;2.28;;;1.25;;
63499;SDS011;49654;51.142;14.924;2023-01-13T09:31:47;3.42;;;1.45;;
63499;SDS011;49654;51.142;14.924;2023-01-13T09:34:15;2.78;;;1.50;;
63499;SDS011;49654;51.142;14.924;2023-01-13T09:37:01;1.98;;;1.20;;
63499;SDS011;49654;51.142;14.924;2023-01-13T09:39:28;2.67;;;1.30;;
63499;SDS011;49654;51.142;14.924;2023-01-13T09:41:56;2.03;;;1.20;;
63499;SDS011;49654;51.142;14.924;2023-01-13T09:44:46;1.77;;;1.20;;
63499;SDS011;49654;51.142;14.924;2023-01-13T09:47:22;3.50;;;1.33;;
63499;SDS011;49654;51.142;14.924;2023-01-13T09:49:53;1.48;;;1.20;;
63499;SDS011;49654;51.142;14.924;2023-01-13T09:52:26;4.00;;;1.35;;
63499;SDS011;49654;51.142;14.924;2023-01-13T09:54:54;1.65;;;1.20;;
63499;SDS011;49654;51.142;14.924;2023-01-13T09:57:26;3.67;;;1.35;;
63499;SDS011;49654;51.142;14.924;2023-01-13T09:59:56;3.35;;;1.30;;
63499;SDS011;49654;51.142;14.924;2023-01-13T10:02:32;2.83;;;1.40;;
63499;SDS011;49654;51.142;14.924;2023-01-13T10:05:13;1.98;;;1.38;;
63499;SDS011;49654;51.142;14.924;2023-01-13T10:07:46;3.05;;;1.50;;
63499;SDS011;49654;51.142;14.924;2023-01-13T10:10:17;4.13;;;1.50;;
63499;SDS011;49654;51.142;14.924;2023-01-13T10:12:49;3.88;;;1.30;;
63499;SDS011;49654;51.142;14.924;2023-01-13T10:15:34;2.58;;;1.25;;
63499;SDS011;49654;51.142;14.924;2023-01-13T10:18:04;3.10;;;1.38;;
63499;SDS011;49654;51.142;14.924;2023-01-13T10:20:41;2.22;;;1.40;;
63499;SDS011;49654;51.142;14.924;2023-01-13T10:23:25;2.58;;;1.15;;
63499;SDS011;49654;51.142;14.924;2023-01-13T10:26:09;1.98;;;1.05;;
63499;SDS011;49654;51.142;14.924;2023-01-13T10:28:50;2.70;;;1.20;;
63499;SDS011;49654;51.142;14.924;2023-01-13T10:31:17;1.88;;;1.27;;
63499;SDS011;49654;51.142;14.924;2023-01-13T10:33:47;2.60;;;1.27;;
63499;SDS011;49654;51.142;14.924;2023-01-13T10:36:15;2.40;;;1.00;;
63499;SDS011;49654;51.142;14.924;2023-01-13T10:38:46;1.58;;;1.20;;
63499;SDS011;49654;51.142;14.924;2023-01-13T10:41:16;3.97;;;1.30;;
63499;SDS011;49654;51.142;14.924;2023-01-13T10:43:56;2.10;;;1.48;;
63499;SDS011;49654;51.142;14.924;2023-01-13T10:46:24;4.20;;;1.33;;
63499;SDS011;49654;51.142;14.924;2023-01-13T10:48:54;2.35;;;1.38;;
63499;SDS011;49654;51.142;14.924;2023-01-13T10:51:23;2.40;;;1.27;;
63499;SDS011;49654;51.142;14.924;2023-01-13T10:53:53;1.55;;;1.23;;
63499;SDS011;49654;51.142;14.924;2023-01-13T10:56:22;3.10;;;1.40;;
63499;SDS011;49654;51.142;14.924;2023-01-13T10:58:50;1.77;;;1.20;;
63499;SDS011;49654;51.142;14.924;2023-01-13T11:01:22;3.28;;;1.30;;
63499;SDS011;49654;51.142;14.924;2023-01-13T11:03:56;2.00;;;1.50;;
63499;SDS011;49654;51.142;14.924;2023-01-13T11:06:24;2.22;;;1.83;;
63499;SDS011;49654;51.142;14.924;2023-01-13T11:08:54;1.77;;;1.35;;
63499;SDS011;49654;51.142;14.924;2023-01-13T11:11:24;2.03;;;0.90;;
63499;SDS011;49654;51.142;14.924;2023-01-13T11:13:54;0.30;;;0.30;;
63499;SDS011;49654;51.142;14.924;2023-01-13T11:16:44;0.52;;;0.40;;
63499;SDS011;49654;51.142;14.924;2023-01-13T11:19:16;0.30;;;0.30;;
63499;SDS011;49654;51.142;14.924;2023-01-13T11:21:47;0.70;;;0.38;;
63499;SDS011;49654;51.142;14.924;2023-01-13T11:24:20;0.30;;;0.30;;
63499;SDS011;49654;51.142;14.924;2023-01-13T11:26:55;1.08;;;0.45;;
63499;SDS011;49654;51.142;14.924;2023-01-13T11:29:26;1.50;;;0.20;;
63499;SDS011;49654;51.142;14.924;2023-01-13T11:31:59;3.78;;;0.70;;
63499;SDS011;49654;51.142;14.924;2023-01-13T11:34:36;0.63;;;0.40;;
63499;SDS011;49654;51.142;14.924;2023-01-13T11:37:07;0.75;;;0.60;;
63499;SDS011;49654;51.142;14.924;2023-01-13T11:39:41;1.58;;;0.50;;
63499;SDS011;49654;51.142;14.924;2023-01-13T11:42:16;0.43;;;0.40;;
63499;SDS011;49654;51.142;14.924;2023-01-13T11:44:50;0.90;;;0.40;;
63499;SDS011;49654;51.142;14.924;2023-01-13T11:47:28;1.77;;;0.50;;
63499;SDS011;49654;51.142;14.924;2023-01-13T11:49:57;1.05;;;0.70;;
63499;SDS011;49654;51.142;14.924;2023-01-13T11:52:26;2.08;;;0.43;;
63499;SDS011;49654;51.142;14.924;2023-01-13T11:55:06;1.48;;;0.40;;
63499;SDS011;49654;51.142;14.924;2023-01-13T11:57:54;1.73;;;0.60;;
63499;SDS011;49654;51.142;14.924;2023-01-13T12:00:56;0.50;;;0.40;;
63499;SDS011;49654;51.142;14.924;2023-01-13T12:03:31;1.65;;;0.60;;
63499;SDS011;49654;51.142;14.924;2023-01-13T12:06:18;1.75;;;0.63;;
63499;SDS011;49654;51.142;14.924;2023-01-13T12:08:57;1.30;;;0.50;;
63499;SDS011;49654;51.142;14.924;2023-01-13T12:11:37;2.42;;;0.55;;
63499;SDS011;49654;51.142;14.924;2023-01-13T12:14:34;1.42;;;0.50;;
63499;SDS011;49654;51.142;14.924;2023-01-13T12:17:13;1.10;;;0.52;;
63499;SDS011;49654;51.142;14.924;2023-01-13T12:19:48;0.85;;;0.52;;
63499;SDS011;49654;51.142;14.924;2023-01-13T12:22:19;1.30;;;0.60;;
63499;SDS011;49654;51.142;14.924;2023-01-13T12:24:50;1.50;;;1.40;;
63499;SDS011;49654;51.142;14.924;2023-01-13T12:27:22;1.08;;;0.63;;
63499;SDS011;49654;51.142;14.924;2023-01-13T12:29:56;1.25;;;0.60;;
63499;SDS011;49654;51.142;14.924;2023-01-13T12:32:28;1.90;;;0.55;;
63499;SDS011;49654;51.142;14.924;2023-01-13T12:35:04;0.82;;;0.50;;
63499;SDS011;49654;51.142;14.924;2023-01-13T12:37:47;1.42;;;0.60;;
63499;SDS011;49654;51.142;14.924;2023-01-13T12:40:28;1.83;;;0.77;;
63499;SDS011;49654;51.142;14.924;2023-01-13T12:43:13;1.88;;;0.40;;
63499;SDS011;49654;51.142;14.924;2023-01-13T12:49:05;0.70;;;0.60;;
63499;SDS011;49654;51.142;14.924;2023-01-13T12:51:33;0.85;;;0.70;;
63499;SDS011;49654;51.142;14.924;2023-01-13T12:54:04;0.57;;;0.50;;
63499;SDS011;49654;51.142;14.924;2023-01-13T12:56:59;1.90;;;0.60;;
63499;SDS011;49654;51.142;14.924;2023-01-13T12:59:35;0.80;;;0.50;;
63499;SDS011;49654;51.142;14.924;2023-01-13T13:04:59;2.78;;;0.70;;
63499;SDS011;49654;51.142;14.924;2023-01-13T13:07:43;1.38;;;0.40;;
63499;SDS011;49654;51.142;14.924;2023-01-13T13:10:15;1.07;;;0.80;;
63499;SDS011;49654;51.142;14.924;2023-01-13T13:12:52;0.40;;;0.40;;
63499;SDS011;49654;51.142;14.924;2023-01-13T13:15:42;1.65;;;0.57;;
63499;SDS011;49654;51.142;14.924;2023-01-13T13:18:19;2.08;;;0.60;;
63499;SDS011;49654;51.142;14.924;2023-01-13T13:21:03;2.10;;;0.60;;
63499;SDS011;49654;51.142;14.924;2023-01-13T13:23:43;2.25;;;1.40;;
63499;SDS011;49654;51.142;14.924;2023-01-13T13:26:36;1.63;;;0.60;;
63499;SDS011;49654;51.142;14.924;2023-01-13T13:29:07;1.30;;;0.80;;
63499;SDS011;49654;51.142;14.924;2023-01-13T13:35:00;1.15;;;0.50;;
63499;SDS011;49654;51.142;14.924;2023-01-13T13:37:41;0.95;;;0.55;;
63499;SDS011;49654;51.142;14.924;2023-01-13T13:40:37;2.50;;;0.82;;
63499;SDS011;49654;51.142;14.924;2023-01-13T13:43:36;2.22;;;0.75;;
63499;SDS011;49654;51.142;14.924;2023-01-13T13:46:24;1.45;;;0.60;;
63499;SDS011;49654;51.142;14.924;2023-01-13T13:49:10;1.67;;;0.60;;
63499;SDS011;49654;51.142;14.924;2023-01-13T13:51:39;1.00;;;0.63;;
63499;SDS011;49654;51.142;14.924;2023-01-13T13:54:10;1.65;;;0.70;;
63499;SDS011;49654;51.142;14.924;2023-01-13T13:56:40;0.95;;;0.80;;
63499;SDS011;49654;51.142;14.924;2023-01-13T13:59:11;1.67;;;0.70;;
63499;SDS011;49654;51.142;14.924;2023-01-13T14:01:40;1.70;;;0.90;;
63499;SDS011;49654;51.142;14.924;2023-01-13T14:04:14;1.33;;;0.77;;
63499;SDS011;49654;51.142;14.924;2023-01-13T14:06:53;1.15;;;0.70;;
63499;SDS011;49654;51.142;14.924;2023-01-13T14:09:22;2.28;;;0.57;;
63499;SDS011;49654;51.142;14.924;2023-01-13T14:11:54;1.55;;;0.60;;
63499;SDS011;49654;51.142;14.924;2023-01-13T14:14:27;1.77;;;0.63;;
63499;SDS011;49654;51.142;14.924;2023-01-13T14:16:54;0.60;;;0.52;;
63499;SDS011;49654;51.142;14.924;2023-01-13T14:19:27;0.98;;;0.60;;
63499;SDS011;49654;51.142;14.924;2023-01-13T14:21:57;2.75;;;0.80;;
63499;SDS011;49654;51.142;14.924;2023-01-13T14:24:25;1.63;;;0.60;;
63499;SDS011;49654;51.142;14.924;2023-01-13T14:26:52;1.52;;;0.77;;
63499;SDS011;49654;51.142;14.924;2023-01-13T14:29:37;2.55;;;0.68;;
63499;SDS011;49654;51.142;14.924;2023-01-13T14:32:04;1.10;;;0.68;;
63499;SDS011;49654;51.142;14.924;2023-01-13T14:34:33;2.28;;;0.70;;
63499;SDS011;49654;51.142;14.924;2023-01-13T14:37:01;1.20;;;0.82;;
63499;SDS011;49654;51.142;14.924;2023-01-13T14:39:33;1.75;;;0.90;;
63499;SDS011;49654;51.142;14.924;2023-01-13T14:42:02;1.45;;;0.65;;
63499;SDS011;49654;51.142;14.924;2023-01-13T14:44:30;2.15;;;0.80;;
63499;SDS011;49654;51.142;14.924;2023-01-13T14:47:01;1.50;;;0.82;;
63499;SDS011;49654;51.142;14.924;2023-01-13T14:49:31;1.35;;;0.60;;
63499;SDS011;49654;51.142;14.924;2023-01-13T14:52:05;1.90;;;0.70;;
63499;SDS011;49654;51.142;14.924;2023-01-13T14:54:41;2.15;;;1.40;;
63499;SDS011;49654;51.142;14.924;2023-01-13T14:57:23;1.27;;;0.70;;
63499;SDS011;49654;51.142;14.924;2023-01-13T14:59:57;1.92;;;0.90;;
63499;SDS011;49654;51.142;14.924;2023-01-13T15:02:39;2.42;;;0.90;;
63499;SDS011;49654;51.142;14.924;2023-01-13T15:07:56;1.33;;;0.93;;
63499;SDS011;49654;51.142;14.924;2023-01-13T15:10:26;3.63;;;1.05;;
63499;SDS011;49654;51.142;14.924;2023-01-13T15:12:55;2.38;;;1.00;;
63499;SDS011;49654;51.142;14.924;2023-01-13T15:15:25;1.45;;;0.82;;
63499;SDS011;49654;51.142;14.924;2023-01-13T15:17:56;1.10;;;0.85;;
63499;SDS011;49654;51.142;14.924;2023-01-13T15:20:23;1.90;;;1.20;;
63499;SDS011;49654;51.142;14.924;2023-01-13T15:22:53;1.75;;;1.10;;
63499;SDS011;49654;51.142;14.924;2023-01-13T15:25:20;1.98;;;1.30;;
63499;SDS011;49654;51.142;14.924;2023-01-13T15:27:48;3.50;;;1.83;;